createdAt,value
2022-11-09T00:01:04.583Z,33.10
2022-11-09T00:03:32.496Z,31.87
2022-11-09T00:06:00.489Z,33.20
2022-11-09T00:08:28.459Z,33.08
2022-11-09T00:10:56.046Z,33.28
2022-11-09T00:13:23.605Z,33.80
2022-11-09T00:15:50.969Z,31.83
2022-11-09T00:18:18.530Z,31.77
2022-11-09T00:20:48.112Z,31.45
2022-11-09T00:23:16.691Z,30.37
2022-11-09T00:25:44.813Z,30.98
2022-11-09T00:28:12.108Z,33.10
2022-11-09T00:30:40.029Z,30.83
2022-11-09T00:33:08.739Z,32.13
2022-11-09T00:35:38.507Z,30.45
2022-11-09T00:38:05.858Z,31.70
2022-11-09T00:40:33.566Z,32.40
2022-11-09T00:43:00.858Z,31.10
2022-11-09T00:45:28.162Z,30.10
2022-11-09T00:47:55.878Z,29.27
2022-11-09T00:50:23.180Z,31.33
2022-11-09T00:52:50.802Z,30.08
2022-11-09T00:55:21.011Z,29.98
2022-11-09T00:57:51.987Z,30.08
2022-11-09T01:00:21.577Z,30.88
2022-11-09T01:02:51.852Z,30.10
2022-11-09T01:05:19.699Z,29.58
2022-11-09T01:07:49.401Z,30.37
2022-11-09T01:10:16.740Z,30.70
2022-11-09T01:12:44.142Z,30.50
2022-11-09T01:15:11.749Z,30.37
2022-11-09T01:17:39.091Z,28.27
2022-11-09T01:20:06.812Z,29.33
2022-11-09T01:22:35.831Z,28.85
2022-11-09T01:25:03.196Z,26.50
2022-11-09T01:27:30.562Z,28.50
2022-11-09T01:29:58.323Z,28.58
2022-11-09T01:32:25.639Z,27.87
2022-11-09T01:34:52.969Z,28.00
2022-11-09T01:37:20.535Z,26.90
2022-11-09T01:39:47.855Z,28.50
2022-11-09T01:42:15.677Z,26.23
2022-11-09T01:44:43.244Z,26.23
2022-11-09T01:47:16.883Z,26.48
2022-11-09T01:49:51.874Z,26.90
2022-11-09T01:52:31.857Z,26.33
2022-11-09T01:55:07.883Z,27.60
2022-11-09T01:57:39.928Z,26.83
2022-11-09T02:02:45.326Z,25.25
2022-11-09T02:05:16.009Z,24.27
2022-11-09T02:07:45.142Z,24.77
2022-11-09T02:10:32.811Z,25.30
2022-11-09T02:13:02.410Z,22.70
2022-11-09T02:15:39.155Z,23.50
2022-11-09T02:18:11.336Z,23.75
2022-11-09T02:21:05.695Z,24.17
2022-11-09T02:23:32.986Z,23.38
2022-11-09T02:26:05.519Z,23.60
2022-11-09T02:28:34.379Z,22.40
2022-11-09T02:31:02.543Z,21.85
2022-11-09T02:33:29.903Z,23.73
2022-11-09T02:35:57.336Z,23.27
2022-11-09T02:38:25.004Z,22.85
2022-11-09T02:40:52.928Z,22.52
2022-11-09T02:43:20.682Z,21.50
2022-11-09T02:45:48.631Z,22.25
2022-11-09T02:48:16.673Z,22.30
2022-11-09T02:50:44.088Z,21.35
2022-11-09T02:53:11.714Z,21.40
2022-11-09T02:55:39.399Z,22.20
2022-11-09T02:58:07.165Z,20.88
2022-11-09T03:00:35.386Z,20.98
2022-11-09T03:03:03.781Z,20.45
2022-11-09T03:05:31.174Z,21.50
2022-11-09T03:08:02.303Z,20.60
2022-11-09T03:10:30.238Z,20.08
2022-11-09T03:12:57.694Z,21.70
2022-11-09T03:15:25.352Z,20.67
2022-11-09T03:17:52.789Z,20.62
2022-11-09T03:20:20.561Z,20.75
2022-11-09T03:22:48.902Z,21.45
2022-11-09T03:25:16.416Z,21.90
2022-11-09T03:27:43.820Z,21.80
2022-11-09T03:30:12.395Z,21.37
2022-11-09T03:32:40.293Z,21.27
2022-11-09T03:35:08.112Z,21.85
2022-11-09T03:37:36.275Z,19.98
2022-11-09T03:40:04.179Z,22.10
2022-11-09T03:42:31.483Z,21.30
2022-11-09T03:44:59.156Z,19.70
2022-11-09T03:47:26.469Z,20.15
2022-11-09T03:49:53.766Z,21.00
2022-11-09T03:52:21.535Z,21.62
2022-11-09T03:54:48.846Z,21.12
2022-11-09T03:57:16.154Z,20.90
2022-11-09T03:59:43.715Z,18.98
2022-11-09T04:02:11.116Z,21.52
2022-11-09T04:04:38.780Z,20.92
2022-11-09T04:07:06.155Z,19.98
2022-11-09T04:09:33.474Z,20.15
2022-11-09T04:12:01.034Z,21.02
2022-11-09T04:14:28.403Z,21.02
2022-11-09T04:16:55.971Z,20.62
2022-11-09T04:19:23.801Z,20.25
2022-11-09T04:21:51.660Z,21.30
2022-11-09T04:24:18.949Z,20.70
2022-11-09T04:26:49.294Z,22.27
2022-11-09T04:29:16.578Z,21.27
2022-11-09T04:31:43.959Z,21.75
2022-11-09T04:34:11.526Z,22.20
2022-11-09T04:36:38.822Z,20.15
2022-11-09T04:39:06.143Z,20.77
2022-11-09T04:41:33.719Z,19.87
2022-11-09T04:44:01.002Z,21.15
2022-11-09T04:46:28.287Z,21.33
2022-11-09T04:48:55.875Z,21.20
2022-11-09T04:51:23.216Z,19.92
2022-11-09T04:53:50.612Z,19.52
2022-11-09T04:56:18.203Z,21.42
2022-11-09T04:58:45.720Z,21.20
2022-11-09T05:01:13.955Z,20.67
2022-11-09T05:03:42.014Z,20.20
2022-11-09T05:06:28.459Z,18.90
2022-11-09T05:08:56.332Z,20.08
2022-11-09T05:11:24.132Z,20.52
2022-11-09T05:13:51.700Z,19.90
2022-11-09T05:16:20.151Z,20.05
2022-11-09T05:18:47.479Z,19.98
2022-11-09T05:21:14.799Z,20.23
2022-11-09T05:24:01.214Z,18.90
2022-11-09T05:26:39.980Z,22.15
2022-11-09T05:29:09.893Z,21.50
2022-11-09T05:31:38.259Z,21.27
2022-11-09T05:34:06.938Z,22.42
2022-11-09T05:36:34.495Z,22.48
2022-11-09T05:39:01.864Z,22.15
2022-11-09T05:41:29.358Z,22.30
2022-11-09T05:43:56.977Z,21.00
2022-11-09T05:46:25.153Z,23.05
2022-11-09T05:48:52.470Z,21.77
2022-11-09T05:51:20.010Z,21.50
2022-11-09T05:53:47.420Z,21.50
2022-11-09T05:56:15.299Z,21.40
2022-11-09T05:58:43.217Z,20.27
2022-11-09T06:01:15.988Z,19.85
2022-11-09T06:03:44.249Z,20.45
2022-11-09T06:06:15.829Z,21.75
2022-11-09T06:08:43.186Z,20.75
2022-11-09T06:11:13.069Z,20.60
2022-11-09T06:13:42.019Z,21.40
2022-11-09T06:16:09.697Z,19.77
2022-11-09T06:18:37.391Z,20.62
2022-11-09T06:21:05.982Z,20.77
2022-11-09T06:23:34.291Z,19.55
2022-11-09T06:26:06.292Z,20.33
2022-11-09T06:28:34.642Z,21.05
2022-11-09T06:31:04.132Z,18.83
2022-11-09T06:33:32.419Z,19.77
2022-11-09T06:35:59.839Z,18.70
2022-11-09T06:38:27.554Z,19.85
2022-11-09T06:40:56.264Z,18.83
2022-11-09T06:43:24.148Z,19.02
2022-11-09T06:45:51.809Z,18.05
2022-11-09T06:48:19.353Z,19.12
2022-11-09T06:50:46.856Z,17.48
2022-11-09T06:53:15.742Z,18.87
2022-11-09T06:55:47.380Z,18.20
2022-11-09T06:58:19.430Z,19.25
2022-11-09T07:00:47.072Z,17.60
2022-11-09T07:03:15.777Z,18.05
2022-11-09T07:05:43.485Z,18.73
2022-11-09T07:08:11.525Z,17.85
2022-11-09T07:10:39.059Z,18.55
2022-11-09T07:13:07.309Z,19.92
2022-11-09T07:15:35.424Z,17.35
2022-11-09T07:18:05.181Z,16.55
2022-11-09T07:20:33.091Z,16.35
2022-11-09T07:23:00.410Z,17.33
2022-11-09T07:25:27.746Z,18.58
2022-11-09T07:27:55.422Z,18.58
2022-11-09T07:30:22.727Z,15.65
2022-11-09T07:35:38.564Z,16.80
2022-11-09T07:38:06.180Z,15.93
2022-11-09T07:40:34.017Z,17.27
2022-11-09T07:43:02.451Z,18.30
2022-11-09T07:45:30.767Z,17.27
2022-11-09T07:48:00.733Z,18.30
2022-11-09T07:50:29.452Z,18.50
2022-11-09T07:52:57.643Z,17.85
2022-11-09T07:55:25.851Z,17.98
2022-11-09T07:57:57.689Z,19.67
2022-11-09T08:00:26.076Z,18.33
2022-11-09T08:02:53.698Z,17.52
2022-11-09T08:05:21.055Z,18.15
2022-11-09T08:07:48.359Z,18.73
2022-11-09T08:10:16.309Z,18.42
2022-11-09T08:12:43.657Z,18.58
2022-11-09T08:15:11.325Z,18.77
2022-11-09T08:17:38.892Z,18.30
2022-11-09T08:20:06.706Z,20.05
2022-11-09T08:22:41.144Z,19.05
2022-11-09T08:25:09.114Z,19.27
2022-11-09T08:27:40.294Z,20.67
2022-11-09T08:30:12.896Z,19.67
2022-11-09T08:32:41.587Z,19.67
2022-11-09T08:35:14.314Z,21.40
2022-11-09T08:37:41.895Z,19.55
2022-11-09T08:40:09.888Z,21.52
2022-11-09T08:42:37.192Z,19.90
2022-11-09T08:45:05.734Z,21.27
2022-11-09T08:47:33.126Z,21.70
2022-11-09T08:50:01.237Z,21.42
2022-11-09T08:52:28.795Z,21.20
2022-11-09T08:54:56.202Z,21.45
2022-11-09T08:57:23.567Z,21.35
2022-11-09T08:59:51.139Z,22.37
2022-11-09T09:02:18.623Z,22.30
2022-11-09T09:04:45.971Z,21.23
2022-11-09T09:07:13.664Z,22.52
2022-11-09T09:09:41.053Z,21.25
2022-11-09T09:12:09.485Z,20.88
2022-11-09T09:14:37.183Z,22.02
2022-11-09T09:17:04.582Z,22.00
2022-11-09T09:19:32.016Z,23.83
2022-11-09T09:22:01.279Z,22.87
2022-11-09T09:24:28.792Z,22.00
2022-11-09T09:26:56.096Z,23.25
2022-11-09T09:29:23.691Z,22.77
2022-11-09T09:31:51.079Z,22.45
2022-11-09T09:34:18.482Z,25.02
2022-11-09T09:36:48.207Z,24.25
2022-11-09T09:39:15.952Z,21.95
2022-11-09T09:41:51.522Z,24.10
2022-11-09T09:44:29.102Z,24.42
2022-11-09T09:47:07.816Z,24.58
2022-11-09T09:49:38.396Z,24.30
2022-11-09T09:52:26.023Z,25.73
2022-11-09T09:55:08.333Z,25.30
2022-11-09T09:57:41.655Z,26.10
2022-11-09T10:00:19.179Z,24.70
2022-11-09T10:02:46.866Z,24.52
2022-11-09T10:05:16.296Z,24.42
2022-11-09T10:08:09.321Z,26.70
2022-11-09T10:10:39.854Z,24.90
2022-11-09T10:13:26.856Z,26.60
2022-11-09T10:16:15.289Z,26.58
2022-11-09T10:19:00.953Z,27.20
2022-11-09T10:22:08.165Z,28.25
2022-11-09T10:25:16.826Z,26.25
2022-11-09T10:27:43.583Z,27.50
2022-11-09T10:30:16.409Z,26.42
2022-11-09T10:32:47.045Z,28.83
2022-11-09T10:35:19.745Z,28.52
2022-11-09T10:37:50.136Z,27.70
2022-11-09T10:40:22.811Z,27.90
2022-11-09T10:43:13.825Z,28.83
2022-11-09T10:46:08.082Z,28.40
2022-11-09T10:48:55.606Z,28.95
2022-11-09T10:51:43.480Z,29.27
2022-11-09T10:54:34.670Z,28.65
2022-11-09T10:57:24.603Z,29.83
2022-11-09T11:00:19.202Z,30.30
2022-11-09T11:03:33.101Z,30.77
2022-11-09T11:06:27.157Z,32.45
2022-11-09T11:09:19.079Z,31.65
2022-11-09T11:12:15.414Z,32.03
2022-11-09T11:15:01.209Z,29.77
2022-11-09T11:17:46.986Z,30.95
2022-11-09T11:20:35.339Z,31.40
2022-11-09T11:23:23.595Z,32.13
2022-11-09T11:26:30.465Z,32.65
2022-11-09T11:29:19.237Z,33.17
2022-11-09T11:32:10.014Z,32.78
2022-11-09T11:35:00.704Z,31.00
2022-11-09T11:38:07.276Z,32.88
2022-11-09T11:41:05.223Z,32.03
2022-11-09T11:44:02.760Z,31.95
2022-11-09T11:47:01.030Z,33.08
2022-11-09T11:50:23.872Z,32.25
2022-11-09T11:53:48.219Z,32.60
2022-11-09T11:57:07.414Z,32.28
2022-11-09T12:00:01.929Z,33.70
2022-11-09T12:03:03.056Z,34.10
2022-11-09T12:05:54.778Z,35.47
2022-11-09T12:08:59.514Z,33.38
2022-11-09T12:12:06.895Z,36.50
2022-11-09T12:14:58.481Z,35.20
2022-11-09T12:17:52.323Z,35.80
2022-11-09T12:20:59.891Z,35.78
2022-11-09T12:24:00.391Z,35.28
2022-11-09T12:27:17.840Z,38.10
2022-11-09T12:30:14.051Z,37.95
2022-11-09T12:33:07.030Z,34.97
2022-11-09T12:36:12.599Z,34.85
2022-11-09T12:38:58.480Z,34.85
2022-11-09T12:41:45.337Z,34.53
2022-11-09T12:44:40.137Z,35.45
2022-11-09T12:47:34.551Z,35.30
2022-11-09T12:50:21.972Z,37.38
2022-11-09T12:53:08.315Z,37.28
2022-11-09T12:56:00.126Z,37.67
2022-11-09T12:58:46.198Z,37.10
2022-11-09T13:01:35.102Z,36.47
2022-11-09T13:04:22.545Z,36.70
2022-11-09T13:07:16.637Z,37.25
2022-11-09T13:10:03.404Z,37.63
2022-11-09T13:12:49.507Z,36.25
2022-11-09T13:15:35.456Z,35.17
2022-11-09T13:18:47.535Z,34.92
2022-11-09T13:21:35.414Z,35.90
2022-11-09T13:24:30.608Z,35.92
2022-11-09T13:27:47.128Z,35.55
2022-11-09T13:30:35.468Z,33.25
2022-11-09T13:33:31.721Z,33.53
2022-11-09T13:36:19.290Z,35.42
2022-11-09T13:39:28.641Z,34.92
2022-11-09T13:42:35.822Z,33.42
2022-11-09T13:45:32.364Z,35.22
2022-11-09T13:48:33.347Z,35.22
2022-11-09T13:51:32.926Z,33.65
2022-11-09T13:54:35.481Z,35.28
2022-11-09T13:57:22.920Z,36.03
2022-11-09T14:00:23.417Z,35.13
2022-11-09T14:03:24.870Z,36.75
2022-11-09T14:06:11.705Z,32.45
2022-11-09T14:08:58.043Z,37.15
2022-11-09T14:11:57.193Z,35.92
2022-11-09T14:14:55.569Z,37.55
2022-11-09T14:18:12.469Z,37.03
2022-11-09T14:21:17.715Z,35.95
2022-11-09T14:24:24.837Z,38.00
2022-11-09T14:27:10.581Z,35.92
2022-11-09T14:30:00.907Z,35.25
2022-11-09T14:32:51.498Z,38.38
2022-11-09T14:35:39.155Z,36.53
2022-11-09T14:38:25.332Z,37.00
2022-11-09T14:41:23.139Z,36.47
2022-11-09T14:44:16.288Z,37.75
2022-11-09T14:47:02.491Z,38.85
2022-11-09T14:49:48.930Z,39.63
2022-11-09T14:52:34.957Z,39.50
2022-11-09T14:55:22.830Z,40.20
2022-11-09T14:58:13.190Z,41.17
2022-11-09T15:01:16.522Z,40.38
2022-11-09T15:04:21.028Z,38.83
2022-11-09T15:07:08.116Z,37.95
2022-11-09T15:09:59.454Z,39.50
2022-11-09T15:12:54.965Z,38.10
2022-11-09T15:15:41.359Z,37.72
2022-11-09T15:18:34.332Z,38.90
2022-11-09T15:21:32.325Z,39.00
2022-11-09T15:24:19.257Z,39.70
2022-11-09T15:27:34.804Z,40.75
2022-11-09T15:30:48.580Z,38.30
2022-11-09T15:33:46.395Z,39.20
2022-11-09T15:36:35.658Z,40.85
2022-11-09T15:39:23.179Z,39.65
2022-11-09T15:42:12.878Z,38.08
2022-11-09T15:44:59.842Z,38.25
2022-11-09T15:47:54.521Z,39.78
2022-11-09T15:50:40.953Z,42.20
2022-11-09T15:53:27.854Z,40.83
2022-11-09T15:56:23.458Z,40.28
2022-11-09T15:59:19.775Z,39.28
2022-11-09T16:02:06.443Z,40.10
2022-11-09T16:04:52.394Z,40.72
2022-11-09T16:07:38.651Z,42.35
2022-11-09T16:10:27.762Z,39.15
2022-11-09T16:13:14.283Z,41.75
2022-11-09T16:16:05.058Z,41.45
2022-11-09T16:18:50.796Z,41.95
2022-11-09T16:21:36.501Z,44.33
2022-11-09T16:24:22.144Z,46.45
2022-11-09T16:27:16.945Z,44.17
2022-11-09T16:30:09.432Z,46.50
2022-11-09T16:32:55.606Z,48.67
2022-11-09T16:35:41.607Z,43.92
2022-11-09T16:38:31.426Z,44.67
2022-11-09T16:41:17.979Z,45.03
2022-11-09T16:44:04.069Z,44.42
2022-11-09T16:46:50.054Z,42.65
2022-11-09T16:49:35.776Z,47.25
2022-11-09T16:52:22.010Z,45.38
2022-11-09T16:55:09.373Z,42.85
2022-11-09T16:57:55.350Z,42.50
2022-11-09T17:01:09.721Z,44.30
2022-11-09T17:03:54.503Z,43.92
2022-11-09T17:06:40.329Z,41.22
2022-11-09T17:09:25.987Z,41.75
2022-11-09T17:12:11.890Z,41.95
2022-11-09T17:14:57.691Z,43.97
2022-11-09T17:17:43.711Z,46.60
2022-11-09T17:20:29.651Z,43.67
2022-11-09T17:23:18.775Z,43.42
2022-11-09T17:26:05.586Z,41.45
2022-11-09T17:28:51.427Z,44.70
2022-11-09T17:31:38.135Z,42.33
2022-11-09T17:34:24.091Z,43.53
2022-11-09T17:37:09.813Z,42.03
2022-11-09T17:39:55.582Z,43.87
2022-11-09T17:42:41.654Z,52.13
2022-11-09T17:45:27.480Z,47.47
2022-11-09T17:48:13.077Z,47.97
2022-11-09T17:50:59.276Z,46.37
2022-11-09T17:53:45.188Z,46.60
2022-11-09T17:56:32.059Z,45.47
2022-11-09T17:59:18.232Z,46.03
2022-11-09T18:02:03.670Z,48.05
2022-11-09T18:04:49.481Z,46.55
2022-11-09T18:07:35.222Z,46.65
2022-11-09T18:10:20.764Z,46.45
2022-11-09T18:13:06.646Z,46.53
2022-11-09T18:15:52.776Z,47.13
2022-11-09T18:18:38.722Z,47.42
2022-11-09T18:21:25.416Z,45.20
2022-11-09T18:24:11.346Z,46.70
2022-11-09T18:26:57.251Z,46.65
2022-11-09T18:29:43.170Z,44.38
2022-11-09T18:32:28.895Z,47.60
2022-11-09T18:35:14.814Z,48.20
2022-11-09T18:38:00.631Z,46.35
2022-11-09T18:40:56.879Z,47.67
2022-11-09T18:43:42.629Z,46.05
2022-11-09T18:46:30.765Z,47.97
2022-11-09T18:49:17.907Z,45.80
2022-11-09T18:52:03.950Z,43.80
2022-11-09T18:54:49.897Z,45.97
2022-11-09T18:57:35.674Z,46.17
2022-11-09T19:00:21.530Z,45.35
2022-11-09T19:03:11.574Z,45.70
2022-11-09T19:05:57.511Z,45.92
2022-11-09T19:09:02.354Z,44.53
2022-11-09T19:11:48.327Z,43.08
2022-11-09T19:14:40.907Z,46.33
2022-11-09T19:17:27.110Z,46.53
2022-11-09T19:20:12.840Z,46.40
2022-11-09T19:22:58.508Z,47.70
2022-11-09T19:25:44.609Z,46.78
2022-11-09T19:28:30.331Z,46.00
2022-11-09T19:31:17.774Z,48.65
2022-11-09T19:34:04.231Z,48.75
2022-11-09T19:36:50.198Z,49.08
2022-11-09T19:39:39.148Z,47.78
2022-11-09T19:42:27.960Z,45.25
2022-11-09T19:45:13.793Z,46.33
2022-11-09T19:48:01.107Z,47.58
2022-11-09T19:50:51.800Z,46.63
2022-11-09T19:53:42.188Z,48.67
2022-11-09T19:56:30.883Z,45.72
2022-11-09T19:59:17.079Z,45.78
2022-11-09T20:02:03.095Z,50.78
2022-11-09T20:04:50.695Z,47.92
2022-11-09T20:07:36.453Z,45.97
2022-11-09T20:10:22.256Z,46.08
2022-11-09T20:13:08.041Z,43.75
2022-11-09T20:15:53.954Z,45.85
2022-11-09T20:18:40.039Z,44.88
2022-11-09T20:21:26.093Z,43.08
2022-11-09T20:24:12.376Z,44.00
2022-11-09T20:26:58.292Z,43.50
2022-11-09T20:29:43.979Z,43.87
2022-11-09T20:32:29.662Z,44.15
2022-11-09T20:35:15.698Z,43.85
2022-11-09T20:38:01.692Z,43.05
2022-11-09T20:40:58.022Z,43.75
2022-11-09T20:43:43.627Z,43.05
2022-11-09T20:46:34.501Z,42.65
2022-11-09T20:49:22.449Z,43.35
2022-11-09T20:52:08.158Z,41.37
2022-11-09T20:54:54.123Z,43.45
2022-11-09T20:57:40.178Z,42.35
2022-11-09T21:00:25.933Z,41.95
2022-11-09T21:03:11.623Z,42.95
2022-11-09T21:05:59.508Z,42.50
2022-11-09T21:08:46.755Z,41.03
2022-11-09T21:11:35.024Z,41.72
2022-11-09T21:14:20.718Z,39.75
2022-11-09T21:17:06.429Z,38.63
2022-11-09T21:19:52.293Z,41.70
2022-11-09T21:22:56.552Z,41.05
2022-11-09T21:26:02.516Z,39.88
2022-11-09T21:29:06.817Z,41.15
2022-11-09T21:31:52.694Z,41.37
2022-11-09T21:34:39.129Z,39.63
2022-11-09T21:37:25.079Z,41.60
2022-11-09T21:40:11.078Z,41.47
2022-11-09T21:42:57.063Z,40.33
2022-11-09T21:45:42.650Z,40.08
2022-11-09T21:48:28.414Z,40.80
2022-11-09T21:51:14.326Z,41.25
2022-11-09T21:54:00.212Z,39.65
2022-11-09T21:56:49.733Z,41.13
2022-11-09T21:59:35.596Z,42.15
2022-11-09T22:02:21.181Z,41.15
2022-11-09T22:05:07.422Z,40.17
2022-11-09T22:07:53.520Z,39.50
2022-11-09T22:10:39.225Z,39.85
2022-11-09T22:13:43.409Z,41.50
2022-11-09T22:16:33.698Z,39.35
2022-11-09T22:19:38.110Z,41.42
2022-11-09T22:22:24.406Z,40.03
2022-11-09T22:25:10.095Z,41.97
2022-11-09T22:27:55.966Z,41.83
2022-11-09T22:30:41.703Z,43.20
2022-11-09T22:33:29.397Z,42.92
2022-11-09T22:36:16.398Z,43.58
2022-11-09T22:39:02.414Z,44.80
2022-11-09T22:41:48.291Z,45.63
2022-11-09T22:44:33.962Z,42.13
2022-11-09T22:47:19.983Z,44.13
2022-11-09T22:50:06.456Z,43.58
2022-11-09T22:52:59.515Z,41.22
2022-11-09T22:55:55.998Z,43.63
2022-11-09T22:58:41.740Z,43.20
2022-11-09T23:01:27.382Z,42.22
2022-11-09T23:04:13.663Z,45.65
2022-11-09T23:06:59.414Z,44.20
2022-11-09T23:09:45.157Z,42.47
2022-11-09T23:12:33.158Z,40.60
2022-11-09T23:15:18.763Z,41.90
2022-11-09T23:18:22.731Z,42.95
2022-11-09T23:21:09.009Z,41.65
2022-11-09T23:23:57.103Z,44.25
2022-11-09T23:26:42.872Z,45.22
2022-11-09T23:29:28.785Z,42.10
2022-11-09T23:32:14.400Z,45.00
2022-11-09T23:35:00.136Z,42.22
2022-11-09T23:37:45.806Z,46.55
2022-11-09T23:40:33.741Z,43.30
2022-11-09T23:43:20.349Z,44.78
2022-11-09T23:46:09.961Z,43.75
2022-11-09T23:48:55.837Z,45.50
2022-11-09T23:51:41.797Z,44.88
2022-11-09T23:54:27.705Z,45.15
2022-11-09T23:57:13.714Z,41.80
2022-11-09T23:59:59.758Z,44.20
